createdAt,value
2023-02-19T00:01:53.649Z,100007.56
2023-02-19T00:04:22.674Z,99996.13
2023-02-19T00:06:50.698Z,100002.25
2023-02-19T00:09:19.686Z,100007.53
2023-02-19T00:11:47.854Z,100007.53
2023-02-19T00:14:18.392Z,99997.84
2023-02-19T00:16:46.125Z,100025.16
2023-02-19T00:19:16.682Z,100015.47
2023-02-19T00:21:43.923Z,100016.34
2023-02-19T00:24:13.360Z,100019.84
2023-02-19T00:26:42.332Z,100026.88
2023-02-19T00:29:20.255Z,100041.84
2023-02-19T00:31:48.017Z,100049.72
2023-02-19T00:34:15.661Z,100056.75
2023-02-19T00:36:43.378Z,100059.44
2023-02-19T00:39:15.849Z,100053.31
2023-02-19T00:41:43.692Z,100057.66
2023-02-19T00:44:12.394Z,100056.75
2023-02-19T00:46:44.045Z,100053.22
2023-02-19T00:49:18.745Z,100069.06
2023-02-19T00:51:46.156Z,100073.47
2023-02-19T00:54:13.996Z,100073.44
2023-02-19T00:56:41.231Z,100082.25
2023-02-19T00:59:08.576Z,100097.25
2023-02-19T01:01:35.741Z,100091.06
2023-02-19T01:04:04.828Z,100107.66
2023-02-19T01:06:34.783Z,100127.06
2023-02-19T01:09:02.389Z,100119.19
2023-02-19T01:11:29.690Z,100126.25
2023-02-19T01:14:01.322Z,100134.19
2023-02-19T01:16:28.586Z,100141.22
2023-02-19T01:18:57.077Z,100157.94
2023-02-19T01:21:28.140Z,100149.16
2023-02-19T01:23:56.173Z,100145.59
2023-02-19T01:26:30.412Z,100147.38
2023-02-19T01:28:58.924Z,100146.47
2023-02-19T01:31:27.474Z,100148.19
2023-02-19T01:34:00.562Z,100148.16
2023-02-19T01:36:29.629Z,100161.28
2023-02-19T01:38:57.101Z,100175.31
2023-02-19T01:41:26.367Z,100180.53
2023-02-19T01:44:11.422Z,100203.38
2023-02-19T01:46:43.577Z,100202.47
2023-02-19T01:49:30.550Z,100213.00
2023-02-19T01:52:03.812Z,100227.06
2023-02-19T01:54:36.972Z,100227.94
2023-02-19T01:57:08.710Z,100225.34
2023-02-19T01:59:35.900Z,100227.97
2023-02-19T02:02:03.087Z,100237.66
2023-02-19T02:04:32.292Z,100234.97
2023-02-19T02:07:01.628Z,100244.50
2023-02-19T02:09:49.382Z,100245.34
2023-02-19T02:12:16.349Z,100261.84
2023-02-19T02:14:48.390Z,100274.94
2023-02-19T02:17:30.413Z,100300.28
2023-02-19T02:20:24.935Z,100314.28
2023-02-19T02:23:12.151Z,100334.47
2023-02-19T02:25:44.839Z,100342.34
2023-02-19T02:28:36.095Z,100345.84
2023-02-19T02:31:20.132Z,100347.50
2023-02-19T02:34:08.102Z,100356.34
2023-02-19T02:36:43.731Z,100367.75
2023-02-19T02:39:14.823Z,100356.34
2023-02-19T02:41:45.993Z,100354.56
2023-02-19T02:44:13.859Z,100344.00
2023-02-19T02:46:46.603Z,100343.22
2023-02-19T02:49:22.087Z,100347.88
2023-02-19T02:51:53.129Z,100354.00
2023-02-19T02:54:43.343Z,100358.47
2023-02-19T02:57:14.931Z,100367.31
2023-02-19T02:59:43.156Z,100375.34
2023-02-19T03:02:19.349Z,100397.47
2023-02-19T03:05:25.614Z,100389.69
2023-02-19T03:08:11.075Z,100406.38
2023-02-19T03:10:49.354Z,100409.00
2023-02-19T03:13:53.121Z,100411.41
2023-02-19T03:16:52.099Z,100414.31
2023-02-19T03:19:23.640Z,100440.34
2023-02-19T03:22:00.896Z,100451.50
2023-02-19T03:24:50.840Z,100455.75
2023-02-19T03:27:20.682Z,100464.47
2023-02-19T03:29:50.616Z,100454.81
2023-02-19T03:32:37.310Z,100441.66
2023-02-19T03:35:14.975Z,100464.66
2023-02-19T03:37:50.369Z,100476.19
2023-02-19T03:40:17.837Z,100474.56
2023-02-19T03:43:10.816Z,100480.03
2023-02-19T03:46:07.836Z,100496.00
2023-02-19T03:49:16.905Z,100493.72
2023-02-19T03:51:51.857Z,100481.22
2023-02-19T03:54:35.159Z,100495.09
2023-02-19T03:57:12.222Z,100491.69
2023-02-19T03:59:44.074Z,100506.72
2023-02-19T04:02:22.123Z,100514.63
2023-02-19T04:05:18.865Z,100516.25
2023-02-19T04:07:50.726Z,100507.38
2023-02-19T04:10:19.096Z,100514.47
2023-02-19T04:12:59.886Z,100522.38
2023-02-19T04:15:31.445Z,100526.81
2023-02-19T04:18:05.587Z,100525.97
2023-02-19T04:20:40.178Z,100527.69
2023-02-19T04:23:07.813Z,100530.28
2023-02-19T04:25:38.691Z,100537.34
2023-02-19T04:28:05.831Z,100539.09
2023-02-19T04:30:32.869Z,100538.22
2023-02-19T04:32:59.944Z,100538.19
2023-02-19T04:35:27.103Z,100542.59
2023-02-19T04:37:54.177Z,100555.09
2023-02-19T04:40:21.192Z,100565.63
2023-02-19T04:42:48.187Z,100576.09
2023-02-19T04:45:15.244Z,100580.50
2023-02-19T04:47:42.299Z,100580.50
2023-02-19T04:50:09.345Z,100587.56
2023-02-19T04:52:36.468Z,100594.69
2023-02-19T04:55:03.631Z,100593.63
2023-02-19T04:57:30.649Z,100591.72
2023-02-19T04:59:57.686Z,100592.63
2023-02-19T05:02:24.769Z,100600.47
2023-02-19T05:04:51.777Z,100603.94
2023-02-19T05:07:18.996Z,100594.31
2023-02-19T05:09:45.985Z,100599.56
2023-02-19T05:12:13.013Z,100602.13
2023-02-19T05:14:39.989Z,100603.03
2023-02-19T05:17:07.000Z,100604.75
2023-02-19T05:19:33.994Z,100596.72
2023-02-19T05:22:01.017Z,100605.47
2023-02-19T05:24:28.497Z,100606.34
2023-02-19T05:26:55.580Z,100602.81
2023-02-19T05:29:22.653Z,100598.47
2023-02-19T05:31:49.843Z,100596.75
2023-02-19T05:34:17.002Z,100595.88
2023-02-19T05:36:44.099Z,100612.88
2023-02-19T05:39:12.140Z,100618.53
2023-02-19T05:41:39.540Z,100635.19
2023-02-19T05:44:06.656Z,100641.56
2023-02-19T05:46:34.076Z,100662.75
2023-02-19T05:49:01.292Z,100671.59
2023-02-19T05:51:28.747Z,100668.03
2023-02-19T05:53:57.238Z,100679.78
2023-02-19T05:56:40.142Z,100699.47
2023-02-19T05:59:17.373Z,100702.38
2023-02-19T06:01:45.398Z,100688.56
2023-02-19T06:04:14.119Z,100711.44
2023-02-19T06:06:42.624Z,100706.19
2023-02-19T06:09:10.717Z,100697.34
2023-02-19T06:11:39.123Z,100698.25
2023-02-19T06:14:06.873Z,100693.72
2023-02-19T06:16:34.509Z,100699.31
2023-02-19T06:19:04.916Z,100689.59
2023-02-19T06:21:32.074Z,100680.69
2023-02-19T06:23:59.328Z,100679.84
2023-02-19T06:26:26.673Z,100679.13
2023-02-19T06:28:54.719Z,100672.81
2023-02-19T06:31:23.448Z,100667.63
2023-02-19T06:33:55.184Z,100661.50
2023-02-19T06:36:22.847Z,100663.16
2023-02-19T06:38:50.208Z,100660.56
2023-02-19T06:41:17.843Z,100646.47
2023-02-19T06:43:44.875Z,100651.78
2023-02-19T06:46:13.198Z,100650.13
2023-02-19T06:48:42.400Z,100653.63
2023-02-19T06:51:13.597Z,100653.59
2023-02-19T06:53:40.620Z,100657.28
2023-02-19T06:56:25.217Z,100648.31
2023-02-19T06:58:54.204Z,100657.13
2023-02-19T07:01:23.425Z,100660.63
2023-02-19T07:03:52.703Z,100664.13
2023-02-19T07:06:22.162Z,100666.81
2023-02-19T07:08:50.279Z,100673.84
2023-02-19T07:11:18.783Z,100684.38
2023-02-19T07:13:46.082Z,100695.13
2023-02-19T07:16:14.191Z,100689.00
2023-02-19T07:18:41.304Z,100690.78
2023-02-19T07:21:12.265Z,100685.47
2023-02-19T07:23:40.637Z,100689.88
2023-02-19T07:26:13.655Z,100692.53
2023-02-19T07:28:45.710Z,100694.19
2023-02-19T07:31:14.577Z,100696.00
2023-02-19T07:33:45.709Z,100710.19
2023-02-19T07:36:14.488Z,100710.16
2023-02-19T07:38:41.575Z,100714.59
2023-02-19T07:41:09.261Z,100702.47
2023-02-19T07:43:38.802Z,100706.81
2023-02-19T07:46:11.752Z,100690.06
2023-02-19T07:48:40.146Z,100696.31
2023-02-19T07:51:12.320Z,100694.56
2023-02-19T07:53:39.603Z,100698.84
2023-02-19T07:56:08.558Z,100691.97
2023-02-19T07:58:35.741Z,100701.66
2023-02-19T08:01:17.531Z,100685.78
2023-02-19T08:03:45.525Z,100690.19
2023-02-19T08:06:13.070Z,100678.81
2023-02-19T08:08:42.126Z,100681.50
2023-02-19T08:11:29.306Z,100679.78
2023-02-19T08:13:56.497Z,100672.75
2023-02-19T08:16:40.633Z,100668.44
2023-02-19T08:19:09.717Z,100665.84
2023-02-19T08:21:36.731Z,100675.56
2023-02-19T08:24:04.067Z,100673.84
2023-02-19T08:26:31.134Z,100669.50
2023-02-19T08:28:59.196Z,100670.41
2023-02-19T08:31:27.289Z,100667.84
2023-02-19T08:33:54.518Z,100671.38
2023-02-19T08:36:21.746Z,100659.06
2023-02-19T08:38:48.820Z,100654.69
2023-02-19T08:41:16.238Z,100659.16
2023-02-19T08:43:43.983Z,100658.34
2023-02-19T08:46:12.598Z,100646.00
2023-02-19T08:48:40.162Z,100645.16
2023-02-19T08:51:11.452Z,100643.47
2023-02-19T08:53:40.338Z,100673.75
2023-02-19T08:56:10.454Z,100658.78
2023-02-19T08:58:38.035Z,100677.50
2023-02-19T09:01:14.772Z,100641.22
2023-02-19T09:03:42.470Z,100636.84
2023-02-19T09:06:17.368Z,100650.97
2023-02-19T09:08:46.489Z,100646.34
2023-02-19T09:11:14.051Z,100678.09
2023-02-19T09:13:41.437Z,100683.44
2023-02-19T09:16:08.854Z,100695.84
2023-02-19T09:18:36.195Z,100687.88
2023-02-19T09:21:05.476Z,100692.41
2023-02-19T09:23:36.821Z,100676.44
2023-02-19T09:26:08.638Z,100696.84
2023-02-19T09:28:36.539Z,100689.63
2023-02-19T09:31:16.815Z,100695.03
2023-02-19T09:33:46.505Z,100672.94
2023-02-19T09:36:15.636Z,100681.81
2023-02-19T09:38:43.039Z,100677.41
2023-02-19T09:41:19.133Z,100675.69
2023-02-19T09:43:46.804Z,100661.50
2023-02-19T09:46:42.913Z,100653.63
2023-02-19T09:49:21.224Z,100644.88
2023-02-19T09:51:59.192Z,100657.31
2023-02-19T09:54:29.417Z,100644.94
2023-02-19T09:57:00.379Z,100656.50
2023-02-19T09:59:33.832Z,100636.25
2023-02-19T10:02:14.005Z,100621.28
2023-02-19T10:04:44.281Z,100638.97
2023-02-19T10:07:25.245Z,100621.34
2023-02-19T10:10:00.048Z,100630.31
2023-02-19T10:12:32.286Z,100611.84
2023-02-19T10:15:12.014Z,100596.78
2023-02-19T10:17:39.076Z,100603.94
2023-02-19T10:20:06.665Z,100569.47
2023-02-19T10:22:37.944Z,100541.22
2023-02-19T10:25:05.246Z,100506.72
2023-02-19T10:27:32.461Z,100526.22
2023-02-19T10:30:01.220Z,100524.53
2023-02-19T10:32:29.926Z,100517.56
2023-02-19T10:35:16.697Z,100529.97
2023-02-19T10:37:47.623Z,100523.91
2023-02-19T10:40:21.949Z,100492.03
2023-02-19T10:42:53.302Z,100479.63
2023-02-19T10:45:27.626Z,100480.50
2023-02-19T10:47:54.714Z,100445.13
2023-02-19T10:50:39.554Z,100458.41
2023-02-19T10:53:06.661Z,100399.19
2023-02-19T10:55:37.977Z,100417.78
2023-02-19T10:58:28.888Z,100362.97
2023-02-19T11:01:25.770Z,100353.25
2023-02-19T11:04:18.036Z,100292.28
2023-02-19T11:06:47.028Z,100363.00
2023-02-19T11:09:43.364Z,100332.94
2023-02-19T11:12:13.373Z,100307.31
2023-02-19T11:14:44.365Z,100314.38
2023-02-19T11:17:26.056Z,100359.47
2023-02-19T11:19:57.396Z,100312.63
2023-02-19T11:22:30.153Z,100312.59
2023-02-19T11:25:15.397Z,100320.56
2023-02-19T11:28:18.339Z,100319.66
2023-02-19T11:30:49.118Z,100305.53
2023-02-19T11:33:24.953Z,100294.94
2023-02-19T11:36:00.750Z,100347.09
2023-02-19T11:38:28.079Z,100294.03
2023-02-19T11:41:04.467Z,100319.66
2023-02-19T11:44:30.716Z,100332.00
2023-02-19T11:47:45.712Z,100270.03
2023-02-19T11:50:20.014Z,100189.47
2023-02-19T11:53:17.048Z,100217.78
2023-02-19T11:56:12.347Z,100178.88
2023-02-19T11:59:07.425Z,100162.97
2023-02-19T12:02:17.069Z,100163.81
2023-02-19T12:05:20.810Z,100101.94
2023-02-19T12:08:14.480Z,100094.00
2023-02-19T12:10:54.817Z,100102.84
2023-02-19T12:13:48.767Z,100143.53
2023-02-19T12:16:27.233Z,100123.13
2023-02-19T12:19:32.289Z,100103.72
2023-02-19T12:22:27.842Z,100157.63
2023-02-19T12:25:23.970Z,100101.00
2023-02-19T12:28:12.603Z,100043.44
2023-02-19T12:31:21.387Z,100048.66
2023-02-19T12:34:13.204Z,100064.56
2023-02-19T12:37:04.668Z,100084.81
2023-02-19T12:39:37.913Z,100099.50
2023-02-19T12:42:23.912Z,99988.47
2023-02-19T12:45:03.790Z,99949.84
2023-02-19T12:47:39.370Z,99968.47
2023-02-19T12:50:19.892Z,99962.28
2023-02-19T12:53:08.959Z,100003.81
2023-02-19T12:55:46.323Z,100012.63
2023-02-19T12:58:26.162Z,100006.41
2023-02-19T13:00:59.956Z,99994.09
2023-02-19T13:03:41.343Z,100020.63
2023-02-19T13:06:43.137Z,100036.44
2023-02-19T13:09:41.316Z,99994.00
2023-02-19T13:12:18.519Z,99988.59
2023-02-19T13:15:36.320Z,99977.16
2023-02-19T13:18:06.087Z,99997.44
2023-02-19T13:20:38.842Z,100004.28
2023-02-19T13:23:31.794Z,99950.53
2023-02-19T13:26:52.636Z,99975.16
2023-02-19T13:30:09.484Z,99987.47
2023-02-19T13:32:42.563Z,100023.19
2023-02-19T13:35:51.624Z,99930.38
2023-02-19T13:38:20.150Z,99892.56
2023-02-19T13:41:17.996Z,99892.59
2023-02-19T13:43:47.151Z,99779.09
2023-02-19T13:46:17.763Z,99820.59
2023-02-19T13:48:45.174Z,99802.13
2023-02-19T13:51:23.874Z,99820.59
2023-02-19T13:54:00.051Z,99858.59
2023-02-19T13:56:34.295Z,99819.91
2023-02-19T13:59:34.792Z,99863.16
2023-02-19T14:02:22.091Z,99849.97
2023-02-19T14:04:55.615Z,99821.75
2023-02-19T14:07:36.086Z,99782.03
2023-02-19T14:10:06.537Z,99827.78
2023-02-19T14:12:36.539Z,99793.34
2023-02-19T14:15:25.287Z,99701.53
2023-02-19T14:17:55.356Z,99731.47
2023-02-19T14:20:45.153Z,99751.78
2023-02-19T14:23:25.765Z,99741.16
2023-02-19T14:25:59.684Z,99803.91
2023-02-19T14:28:42.426Z,99809.41
2023-02-19T14:31:29.435Z,99818.25
2023-02-19T14:34:14.018Z,99793.59
2023-02-19T14:37:01.059Z,99829.84
2023-02-19T14:39:33.391Z,99807.00
2023-02-19T14:42:03.469Z,99819.38
2023-02-19T14:44:37.232Z,99804.44
2023-02-19T14:47:09.526Z,99823.75
2023-02-19T14:49:46.335Z,99771.66
2023-02-19T14:52:41.134Z,99784.00
2023-02-19T14:55:17.746Z,99778.78
2023-02-19T14:57:48.500Z,99831.03
2023-02-19T15:00:40.542Z,99877.94
2023-02-19T15:03:30.928Z,99911.56
2023-02-19T15:06:07.707Z,99900.97
2023-02-19T15:08:45.562Z,99927.47
2023-02-19T15:11:19.950Z,99929.28
2023-02-19T15:14:06.967Z,99901.03
2023-02-19T15:16:36.576Z,99934.59
2023-02-19T15:19:08.346Z,99939.88
2023-02-19T15:21:40.046Z,99964.59
2023-02-19T15:24:07.798Z,99989.34
2023-02-19T15:26:48.329Z,100010.53
2023-02-19T15:29:18.999Z,99999.03
2023-02-19T15:31:51.432Z,100001.69
2023-02-19T15:34:31.085Z,100017.56
2023-02-19T15:37:04.042Z,100040.53
2023-02-19T15:39:39.953Z,100078.50
2023-02-19T15:42:11.558Z,100087.31
2023-02-19T15:45:09.608Z,100090.84
2023-02-19T15:47:55.600Z,100101.44
2023-02-19T15:50:31.054Z,100158.81
2023-02-19T15:53:19.594Z,100190.56
2023-02-19T15:56:12.709Z,100221.44
2023-02-19T15:58:52.953Z,100249.63
2023-02-19T16:01:34.773Z,100273.44
2023-02-19T16:04:02.702Z,100283.09
2023-02-19T16:06:30.886Z,100283.94
2023-02-19T16:09:06.082Z,100311.22
2023-02-19T16:11:57.754Z,100329.66
2023-02-19T16:14:36.195Z,100333.19
2023-02-19T16:17:22.600Z,100335.81
2023-02-19T16:19:53.726Z,100335.75
2023-02-19T16:22:25.988Z,100329.53
2023-02-19T16:25:01.613Z,100334.75
2023-02-19T16:27:37.747Z,100340.94
2023-02-19T16:30:25.761Z,100333.81
2023-02-19T16:33:37.611Z,100326.69
2023-02-19T16:36:21.939Z,100354.78
2023-02-19T16:39:16.907Z,100364.38
2023-02-19T16:41:47.228Z,100375.75
2023-02-19T16:44:31.349Z,100398.53
2023-02-19T16:47:07.793Z,100403.78
2023-02-19T16:49:35.234Z,100423.16
2023-02-19T16:52:04.821Z,100428.44
2023-02-19T16:54:32.821Z,100440.72
2023-02-19T16:56:59.870Z,100449.38
2023-02-19T16:59:27.325Z,100455.47
2023-02-19T17:01:55.878Z,100469.56
2023-02-19T17:04:23.126Z,100476.59
2023-02-19T17:06:50.250Z,100479.25
2023-02-19T17:09:17.550Z,100482.75
2023-02-19T17:11:44.608Z,100496.81
2023-02-19T17:14:11.582Z,100506.47
2023-02-19T17:16:41.589Z,100521.44
2023-02-19T17:19:18.503Z,100527.53
2023-02-19T17:21:46.842Z,100542.38
2023-02-19T17:24:15.041Z,100550.16
2023-02-19T17:26:42.430Z,100553.66
2023-02-19T17:29:14.829Z,100565.13
2023-02-19T17:31:42.009Z,100575.69
2023-02-19T17:34:09.316Z,100585.28
2023-02-19T17:36:38.157Z,100594.97
2023-02-19T17:39:12.090Z,100607.38
2023-02-19T17:41:39.700Z,100617.91
2023-02-19T17:44:06.942Z,100630.22
2023-02-19T17:46:34.755Z,100640.84
2023-02-19T17:49:02.172Z,100640.00
2023-02-19T17:51:29.540Z,100652.47
2023-02-19T17:53:56.780Z,100655.28
2023-02-19T17:56:26.403Z,100642.91
2023-02-19T17:58:55.771Z,100649.03
2023-02-19T18:01:24.577Z,100647.25
2023-02-19T18:03:52.304Z,100648.19
2023-02-19T18:06:20.868Z,100647.22
2023-02-19T18:08:53.360Z,100653.38
2023-02-19T18:11:23.170Z,100660.38
2023-02-19T18:13:52.409Z,100659.53
2023-02-19T18:16:20.789Z,100666.63
2023-02-19T18:18:47.921Z,100667.59
2023-02-19T18:21:15.816Z,100665.75
2023-02-19T18:23:46.207Z,100675.44
2023-02-19T18:26:14.356Z,100676.31
2023-02-19T18:28:41.704Z,100674.59
2023-02-19T18:31:10.179Z,100673.72
2023-02-19T18:33:37.502Z,100674.63
2023-02-19T18:36:10.701Z,100686.00
2023-02-19T18:38:37.762Z,100696.53
2023-02-19T18:41:05.103Z,100700.00
2023-02-19T18:43:37.828Z,100709.66
2023-02-19T18:46:09.384Z,100717.56
2023-02-19T18:48:37.302Z,100728.03
2023-02-19T18:51:05.027Z,100738.47
2023-02-19T18:53:32.198Z,100752.53
2023-02-19T18:56:02.006Z,100763.91
2023-02-19T18:58:29.040Z,100767.44
2023-02-19T19:00:57.243Z,100781.53
2023-02-19T19:03:25.788Z,100773.56
2023-02-19T19:05:52.877Z,100770.94
2023-02-19T19:08:20.005Z,100774.31
2023-02-19T19:10:47.116Z,100770.59
2023-02-19T19:13:14.216Z,100768.03
2023-02-19T19:15:41.588Z,100767.97
2023-02-19T19:18:09.593Z,100778.50
2023-02-19T19:20:36.870Z,100785.56
2023-02-19T19:23:05.063Z,100788.34
2023-02-19T19:25:32.086Z,100790.13
2023-02-19T19:27:59.253Z,100785.69
2023-02-19T19:30:26.457Z,100796.25
2023-02-19T19:32:54.084Z,100794.41
2023-02-19T19:35:22.665Z,100804.03
2023-02-19T19:37:50.204Z,100806.66
2023-02-19T19:40:18.834Z,100804.91
2023-02-19T19:42:46.331Z,100796.22
2023-02-19T19:45:14.967Z,100804.16
2023-02-19T19:47:42.010Z,100804.22
2023-02-19T19:50:10.027Z,100814.00
2023-02-19T19:52:37.164Z,100813.09
2023-02-19T19:55:06.166Z,100808.84
2023-02-19T19:57:33.560Z,100808.88
2023-02-19T20:00:01.966Z,100806.97
2023-02-19T20:02:29.032Z,100819.28
2023-02-19T20:04:56.166Z,100816.72
2023-02-19T20:07:23.277Z,100813.06
2023-02-19T20:09:50.611Z,100810.53
2023-02-19T20:12:17.820Z,100819.41
2023-02-19T20:14:46.886Z,100816.66
2023-02-19T20:17:14.865Z,100808.78
2023-02-19T20:19:42.584Z,100818.34
2023-02-19T20:22:09.646Z,100821.84
2023-02-19T20:24:36.690Z,100824.53
2023-02-19T20:27:04.267Z,100820.22
2023-02-19T20:29:33.809Z,100824.75
2023-02-19T20:32:03.749Z,100820.31
2023-02-19T20:34:31.697Z,100818.38
2023-02-19T20:36:59.056Z,100838.59
2023-02-19T20:39:29.085Z,100844.69
2023-02-19T20:41:57.647Z,100849.19
2023-02-19T20:44:27.317Z,100849.19
2023-02-19T20:46:55.895Z,100843.91
2023-02-19T20:49:26.863Z,100848.28
2023-02-19T20:51:58.176Z,100855.34
2023-02-19T20:54:29.074Z,100865.16
2023-02-19T20:56:59.518Z,100853.81
2023-02-19T20:59:31.022Z,100855.34
2023-02-19T21:02:02.243Z,100856.22
2023-02-19T21:04:29.387Z,100859.63
2023-02-19T21:06:56.692Z,100870.34
2023-02-19T21:09:24.414Z,100865.84
2023-02-19T21:11:52.191Z,100858.81
2023-02-19T21:14:20.383Z,100857.09
2023-02-19T21:16:47.478Z,100851.72
2023-02-19T21:19:14.688Z,100858.75
2023-02-19T21:21:41.991Z,100856.06
2023-02-19T21:24:13.061Z,100866.50
2023-02-19T21:26:42.512Z,100863.88
2023-02-19T21:29:21.316Z,100873.53
2023-02-19T21:31:52.002Z,100864.72
2023-02-19T21:34:24.070Z,100866.47
2023-02-19T21:36:51.912Z,100866.50
2023-02-19T21:39:21.733Z,100868.09
2023-02-19T21:41:49.476Z,100881.34
2023-02-19T21:44:17.051Z,100884.78
2023-02-19T21:46:44.058Z,100880.34
2023-02-19T21:49:12.848Z,100881.25
2023-02-19T21:51:43.315Z,100890.00
2023-02-19T21:54:17.159Z,100890.00
2023-02-19T21:56:44.552Z,100907.63
2023-02-19T21:59:11.820Z,100905.91
2023-02-19T22:01:42.512Z,100901.44
2023-02-19T22:04:15.172Z,100909.56
2023-02-19T22:06:42.822Z,100913.16
2023-02-19T22:09:11.570Z,100894.63
2023-02-19T22:11:38.656Z,100889.31
2023-02-19T22:14:06.411Z,100886.75
2023-02-19T22:16:33.426Z,100887.63
2023-02-19T22:19:00.773Z,100885.88
2023-02-19T22:21:33.810Z,100877.84
2023-02-19T22:24:02.839Z,100884.00
2023-02-19T22:26:35.394Z,100889.31
2023-02-19T22:29:07.423Z,100885.81
2023-02-19T22:31:35.749Z,100877.88
2023-02-19T22:34:03.514Z,100891.94
2023-02-19T22:36:33.187Z,100895.41
2023-02-19T22:39:01.064Z,100902.28
2023-02-19T22:41:28.940Z,100898.66
2023-02-19T22:43:57.236Z,100910.41
2023-02-19T22:46:28.132Z,100902.41
2023-02-19T22:48:55.301Z,100899.78
2023-02-19T22:51:24.401Z,100901.53
2023-02-19T22:53:57.030Z,100905.13
2023-02-19T22:56:27.025Z,100896.31
2023-02-19T22:58:56.436Z,100889.25
2023-02-19T23:01:24.001Z,100900.56
2023-02-19T23:03:55.116Z,100903.34
2023-02-19T23:06:31.761Z,100895.25
2023-02-19T23:09:04.380Z,100906.72
2023-02-19T23:11:35.184Z,100902.44
2023-02-19T23:14:03.069Z,100899.75
2023-02-19T23:16:32.952Z,100897.94
2023-02-19T23:18:59.998Z,100902.25
2023-02-19T23:21:27.035Z,100900.44
2023-02-19T23:23:54.108Z,100894.53
2023-02-19T23:26:21.152Z,100888.25
2023-02-19T23:28:48.301Z,100895.22
2023-02-19T23:31:16.502Z,100892.47
2023-02-19T23:33:44.069Z,100883.91
2023-02-19T23:36:12.271Z,100874.84
2023-02-19T23:38:39.898Z,100879.06
2023-02-19T23:41:15.938Z,100878.13
2023-02-19T23:43:43.633Z,100869.97
2023-02-19T23:46:17.857Z,100873.38
2023-02-19T23:48:46.344Z,100870.78
2023-02-19T23:51:13.961Z,100878.50
2023-02-19T23:53:41.211Z,100874.72
2023-02-19T23:56:08.525Z,100881.63
2023-02-19T23:58:35.558Z,100887.44
